Time;durP1;ratioP1;P1;durP2;ratioP2;P2;SDS_P1;SDS_P2;PMS_P1;PMS_P2;Temp;Humidity;BMP_temperature;BMP_pressure;BME280_temperature;BME280_humidity;BME280_pressure;Samples;Min_cycle;Max_cycle;Signal;HPM_P1;HPM_P2
2022/02/01 00:01:12;;;;;;;42.55;38.83;;;;;;;;;;4955580;29;20200;-86
2022/02/01 00:03:41;;;;;;;40.30;36.25;;;;;;;;;;4954952;29;20207;-86
2022/02/01 00:06:15;;;;;;;38.72;35.60;;;;;;;;;;4955144;29;20195;-86
2022/02/01 00:08:48;;;;;;;38.17;35.25;;;;;;;;;;4939990;29;20192;-86
2022/02/01 00:11:27;;;;;;;40.15;36.75;;;;;;;;;;4954654;29;20232;-86
2022/02/01 00:14:07;;;;;;;36.88;33.97;;;;;;;;;;4954719;29;20189;-85
2022/02/01 00:33:20;;;;;;;38.47;34.95;;;;;;;;;;4995239;28;20201;-86
2022/02/01 00:35:53;;;;;;;37.63;34.00;;;;;;;;;;4994971;28;20191;-85
2022/02/01 00:38:24;;;;;;;35.88;33.28;;;;;;;;;;4995351;28;20187;-86
2022/02/01 00:40:56;;;;;;;36.47;33.78;;;;;;;;;;4993858;28;20242;-86
2022/02/01 00:43:23;;;;;;;36.50;33.80;;;;;;;;;;4995074;28;20192;-86
2022/02/01 00:45:52;;;;;;;35.08;32.17;;;;;;;;;;4995119;28;20196;-86
2022/02/01 00:48:19;;;;;;;36.15;32.85;;;;;;;;;;4995114;28;20644;-86
2022/02/01 00:50:47;;;;;;;37.97;34.22;;;;;;;;;;4994437;28;20223;-86
2022/02/01 00:53:14;;;;;;;36.78;33.65;;;;;;;;;;4994537;28;20643;-85
2022/02/01 00:55:42;;;;;;;34.50;31.92;;;;;;;;;;5001485;28;20699;-86
2022/02/01 00:58:10;;;;;;;35.30;31.90;;;;;;;;;;4996968;28;20229;-86
2022/02/01 01:00:38;;;;;;;35.05;31.63;;;;;;;;;;5014368;28;20252;-85
2022/02/01 01:03:06;;;;;;;36.13;32.80;;;;;;;;;;4996640;28;20256;-86
2022/02/01 01:05:34;;;;;;;37.40;34.15;;;;;;;;;;5014191;28;20197;-86
2022/02/01 01:08:01;;;;;;;38.08;34.95;;;;;;;;;;5014433;28;20187;-86
2022/02/01 01:10:29;;;;;;;35.20;32.22;;;;;;;;;;5014240;28;20610;-86
2022/02/01 01:13:06;;;;;;;37.53;33.33;;;;;;;;;;4996955;28;20195;-86
2022/02/01 01:15:35;;;;;;;38.65;33.30;;;;;;;;;;5014625;28;20568;-86
2022/02/01 01:45:51;;;;;;;35.33;32.00;;;;;;;;;;5013791;28;20194;-86
2022/02/01 01:53:50;;;;;;;37.95;31.73;;;;;;;;;;5013589;28;20646;-86
2022/02/01 01:56:17;;;;;;;35.83;32.13;;;;;;;;;;5013631;28;20739;-85
2022/02/01 01:58:45;;;;;;;38.15;31.77;;;;;;;;;;5014015;28;20281;-86
2022/02/01 02:01:14;;;;;;;33.92;30.48;;;;;;;;;;5013607;28;20578;-86
2022/02/01 02:03:42;;;;;;;32.40;29.02;;;;;;;;;;5014614;28;20534;-87
2022/02/01 02:06:09;;;;;;;39.38;28.85;;;;;;;;;;5017937;28;20195;-86
2022/02/01 02:08:37;;;;;;;36.17;27.83;;;;;;;;;;5017622;28;20202;-86
2022/02/01 02:11:09;;;;;;;31.63;28.13;;;;;;;;;;5017067;28;20222;-87
2022/02/01 02:16:22;;;;;;;32.35;26.63;;;;;;;;;;5017322;28;20236;-87
2022/02/01 02:18:50;;;;;;;28.45;25.05;;;;;;;;;;4999799;28;20285;-86
2022/02/01 02:21:21;;;;;;;30.98;27.63;;;;;;;;;;5017440;28;20209;-87
2022/02/01 02:23:48;;;;;;;34.17;26.70;;;;;;;;;;5017405;28;20233;-86
2022/02/01 02:26:16;;;;;;;32.00;26.15;;;;;;;;;;5017037;28;20216;-87
2022/02/01 02:28:44;;;;;;;29.08;26.17;;;;;;;;;;5017278;28;20260;-87
2022/02/01 02:31:11;;;;;;;37.95;23.75;;;;;;;;;;5016917;28;20219;-87
2022/02/01 02:33:39;;;;;;;25.08;21.23;;;;;;;;;;5017164;28;20562;-87
2022/02/01 02:36:13;;;;;;;25.35;21.70;;;;;;;;;;5000293;28;20245;-87
2022/02/01 02:38:45;;;;;;;28.90;21.25;;;;;;;;;;5017104;28;20248;-87
2022/02/01 02:46:51;;;;;;;29.27;22.08;;;;;;;;;;5016649;28;20192;-87
2022/02/01 02:49:19;;;;;;;23.88;21.40;;;;;;;;;;5017076;28;20194;-87
2022/02/01 02:51:46;;;;;;;21.50;19.80;;;;;;;;;;5016730;28;20701;-87
2022/02/01 02:54:16;;;;;;;22.92;20.70;;;;;;;;;;5017037;28;20712;-87
2022/02/01 02:56:44;;;;;;;26.35;20.73;;;;;;;;;;5016419;28;20236;-85
2022/02/01 02:59:13;;;;;;;23.20;20.52;;;;;;;;;;4999191;28;20615;-87
2022/02/01 03:01:40;;;;;;;24.85;20.85;;;;;;;;;;5017019;28;20264;-87
2022/02/01 03:04:08;;;;;;;21.45;19.17;;;;;;;;;;5016358;28;20189;-87
2022/02/01 03:06:35;;;;;;;21.55;19.75;;;;;;;;;;5016575;28;20189;-87
2022/02/01 03:09:03;;;;;;;21.88;19.70;;;;;;;;;;5016206;28;20203;-87
2022/02/01 03:11:32;;;;;;;26.40;20.67;;;;;;;;;;4999281;28;20325;-87
2022/02/01 03:14:02;;;;;;;24.40;20.67;;;;;;;;;;5016170;28;20637;-87
2022/02/01 03:16:51;;;;;;;21.20;19.05;;;;;;;;;;5015323;28;20186;-87
2022/02/01 03:22:04;;;;;;;25.98;20.23;;;;;;;;;;5016311;28;20193;-87
2022/02/01 03:24:31;;;;;;;33.28;21.17;;;;;;;;;;5016373;28;20609;-87
2022/02/01 03:27:00;;;;;;;24.23;19.85;;;;;;;;;;5016545;28;20190;-87
2022/02/01 03:29:28;;;;;;;24.88;19.80;;;;;;;;;;4998409;28;20214;-87
2022/02/01 03:31:55;;;;;;;22.65;20.00;;;;;;;;;;4999114;28;20218;-87
2022/02/01 03:34:22;;;;;;;24.38;20.00;;;;;;;;;;5016066;28;20186;-87
2022/02/01 03:36:50;;;;;;;34.50;21.08;;;;;;;;;;5016103;28;20194;-87
2022/02/01 03:39:17;;;;;;;27.55;20.48;;;;;;;;;;5015487;28;20190;-87
2022/02/01 03:41:44;;;;;;;21.17;19.23;;;;;;;;;;5015383;28;20197;-87
2022/02/01 03:44:13;;;;;;;26.33;20.98;;;;;;;;;;5016047;28;20199;-87
2022/02/01 03:46:46;;;;;;;22.58;19.38;;;;;;;;;;5016113;28;20201;-87
2022/02/01 03:49:13;;;;;;;24.67;20.65;;;;;;;;;;5015827;28;20558;-87
2022/02/01 03:51:41;;;;;;;27.02;19.67;;;;;;;;;;5015560;28;20222;-87
2022/02/01 03:54:08;;;;;;;21.20;19.33;;;;;;;;;;5015860;28;20198;-87
2022/02/01 03:56:35;;;;;;;28.38;21.77;;;;;;;;;;5015292;28;20235;-87
2022/02/01 03:59:03;;;;;;;24.98;19.90;;;;;;;;;;5015377;28;20210;-88
2022/02/01 04:01:32;;;;;;;24.52;19.65;;;;;;;;;;5015995;28;20190;-87
2022/02/01 04:03:59;;;;;;;22.20;20.10;;;;;;;;;;4997864;28;20201;-87
2022/02/01 04:06:27;;;;;;;33.63;20.70;;;;;;;;;;5015350;28;20189;-87
2022/02/01 04:08:54;;;;;;;23.95;20.95;;;;;;;;;;4998211;28;20206;-87
2022/02/01 04:11:21;;;;;;;22.30;20.38;;;;;;;;;;5014841;28;20233;-88
2022/02/01 04:13:49;;;;;;;23.10;19.40;;;;;;;;;;5015400;28;20194;-87
2022/02/01 04:16:16;;;;;;;21.80;19.70;;;;;;;;;;4997846;28;20229;-87
2022/02/01 04:18:45;;;;;;;28.88;22.58;;;;;;;;;;5015312;28;20205;-87
2022/02/01 04:21:12;;;;;;;24.80;21.70;;;;;;;;;;5015201;28;20699;-87
2022/02/01 04:23:40;;;;;;;24.17;20.67;;;;;;;;;;5015495;28;20198;-87
2022/02/01 04:26:07;;;;;;;20.42;18.80;;;;;;;;;;5015078;28;20269;-87
2022/02/01 04:28:35;;;;;;;23.30;20.25;;;;;;;;;;4997898;28;20553;-87
2022/02/01 04:31:02;;;;;;;22.30;20.27;;;;;;;;;;5014809;28;20217;-87
2022/02/01 04:33:29;;;;;;;21.77;19.42;;;;;;;;;;5014886;28;20195;-87
2022/02/01 04:35:58;;;;;;;28.08;21.23;;;;;;;;;;5014949;28;20201;-87
2022/02/01 04:38:26;;;;;;;23.70;20.85;;;;;;;;;;5014855;28;20193;-87
2022/02/01 04:40:54;;;;;;;20.35;18.55;;;;;;;;;;4997103;28;20669;-87
2022/02/01 04:43:21;;;;;;;21.80;19.60;;;;;;;;;;5014725;28;20190;-87
2022/02/01 04:45:49;;;;;;;28.73;19.90;;;;;;;;;;5014652;28;20277;-87
2022/02/01 04:48:16;;;;;;;24.35;19.75;;;;;;;;;;5014890;28;20194;-86
2022/02/01 04:50:44;;;;;;;22.13;18.20;;;;;;;;;;5014683;28;20217;-87
2022/02/01 04:53:13;;;;;;;22.45;19.65;;;;;;;;;;5014109;28;20209;-87
2022/02/01 04:55:54;;;;;;;19.83;18.40;;;;;;;;;;5014453;28;20588;-87
2022/02/01 04:58:21;;;;;;;18.15;17.05;;;;;;;;;;5014729;28;20706;-87
2022/02/01 05:00:49;;;;;;;20.98;19.08;;;;;;;;;;5014521;28;20598;-87
2022/02/01 05:03:16;;;;;;;22.83;18.58;;;;;;;;;;5014499;28;20195;-86
2022/02/01 05:05:44;;;;;;;23.25;17.88;;;;;;;;;;5013987;28;20214;-87
2022/02/01 05:08:13;;;;;;;20.33;18.25;;;;;;;;;;4997435;28;20220;-87
2022/02/01 05:10:41;;;;;;;20.38;18.60;;;;;;;;;;5014498;28;20190;-86
2022/02/01 05:16:04;;;;;;;20.02;18.10;;;;;;;;;;5003527;28;20305;-87
2022/02/01 05:18:38;;;;;;;19.45;17.80;;;;;;;;;;5014652;28;20194;-87
2022/02/01 05:21:10;;;;;;;19.98;17.92;;;;;;;;;;5014183;28;20248;-87
2022/02/01 05:23:39;;;;;;;20.40;18.25;;;;;;;;;;5014116;28;20186;-86
2022/02/01 05:26:06;;;;;;;19.88;17.67;;;;;;;;;;5014048;28;20629;-86
2022/02/01 05:28:35;;;;;;;18.77;17.33;;;;;;;;;;5014354;28;20201;-87
2022/02/01 05:31:03;;;;;;;21.63;19.38;;;;;;;;;;4997259;28;20577;-87
2022/02/01 05:33:30;;;;;;;19.85;17.88;;;;;;;;;;5013831;28;20226;-87
2022/02/01 05:35:58;;;;;;;21.00;19.20;;;;;;;;;;5013822;28;20247;-87
2022/02/01 05:38:25;;;;;;;21.52;18.38;;;;;;;;;;5014729;28;20187;-87
2022/02/01 05:40:54;;;;;;;22.73;18.30;;;;;;;;;;5018121;28;20195;-87
2022/02/01 05:43:24;;;;;;;22.55;17.80;;;;;;;;;;5018363;28;20198;-87
2022/02/01 05:45:51;;;;;;;26.05;18.60;;;;;;;;;;5018356;28;20249;-87
2022/02/01 05:48:19;;;;;;;20.55;18.45;;;;;;;;;;5018193;28;20193;-87
2022/02/01 05:50:49;;;;;;;21.83;19.73;;;;;;;;;;5017951;28;20193;-87
2022/02/01 05:53:16;;;;;;;19.98;18.20;;;;;;;;;;5017436;28;20237;-87
2022/02/01 05:55:46;;;;;;;20.60;18.60;;;;;;;;;;5017638;28;20700;-85
2022/02/01 05:58:15;;;;;;;21.20;18.85;;;;;;;;;;5017661;28;20223;-87
2022/02/01 06:00:42;;;;;;;18.80;17.05;;;;;;;;;;5018258;28;20195;-87
2022/02/01 06:03:10;;;;;;;20.13;18.27;;;;;;;;;;5017773;28;20186;-87
2022/02/01 06:05:37;;;;;;;19.27;17.90;;;;;;;;;;5000373;28;20189;-87
2022/02/01 06:08:05;;;;;;;21.88;17.52;;;;;;;;;;5017413;28;20197;-87
2022/02/01 06:10:32;;;;;;;18.98;17.60;;;;;;;;;;5017815;28;20190;-87
2022/02/01 06:13:00;;;;;;;21.05;18.27;;;;;;;;;;5017650;28;20220;-87
2022/02/01 06:15:29;;;;;;;19.23;17.42;;;;;;;;;;5017635;28;20204;-86
2022/02/01 06:17:57;;;;;;;18.55;17.25;;;;;;;;;;5017306;28;20281;-87
2022/02/01 06:20:24;;;;;;;19.60;17.70;;;;;;;;;;5017165;28;20194;-86
2022/02/01 06:22:52;;;;;;;19.08;17.30;;;;;;;;;;5017310;28;20198;-85
2022/02/01 06:25:35;;;;;;;19.83;17.65;;;;;;;;;;5017077;28;20202;-86
2022/02/01 06:28:02;;;;;;;19.55;17.63;;;;;;;;;;5017520;28;20202;-87
2022/02/01 06:30:31;;;;;;;19.52;17.55;;;;;;;;;;5016579;28;20189;-86
2022/02/01 06:32:58;;;;;;;20.02;17.92;;;;;;;;;;5016542;28;20684;-85
2022/02/01 06:35:27;;;;;;;19.13;17.70;;;;;;;;;;5016845;28;20200;-85
2022/02/01 06:37:54;;;;;;;19.15;17.48;;;;;;;;;;5017149;28;20240;-86
2022/02/01 06:40:21;;;;;;;18.60;17.05;;;;;;;;;;5016541;28;20240;-87
2022/02/01 06:42:49;;;;;;;23.00;19.45;;;;;;;;;;5016376;28;20250;-85
2022/02/01 06:45:16;;;;;;;19.15;17.02;;;;;;;;;;5016544;28;20195;-85
2022/02/01 06:47:46;;;;;;;19.13;17.42;;;;;;;;;;5016936;28;20263;-85
2022/02/01 06:50:16;;;;;;;18.55;17.30;;;;;;;;;;5016379;28;20891;-85
2022/02/01 06:52:43;;;;;;;20.00;18.60;;;;;;;;;;5016089;28;20698;-85
2022/02/01 06:55:12;;;;;;;19.38;17.60;;;;;;;;;;4999025;28;20194;-85
2022/02/01 06:57:41;;;;;;;20.10;18.40;;;;;;;;;;5016090;28;20222;-85
2022/02/01 07:00:09;;;;;;;20.33;18.67;;;;;;;;;;5015985;28;20628;-84
2022/02/01 07:02:37;;;;;;;19.33;18.02;;;;;;;;;;5016287;28;20198;-84
2022/02/01 07:05:06;;;;;;;18.38;17.20;;;;;;;;;;5016262;28;20249;-84
2022/02/01 07:07:33;;;;;;;17.83;16.67;;;;;;;;;;5015635;28;20213;-85
2022/02/01 07:10:01;;;;;;;20.60;18.88;;;;;;;;;;5016545;28;20190;-92
2022/02/01 07:12:28;;;;;;;20.80;18.92;;;;;;;;;;5016346;28;20322;-92
2022/02/01 07:14:55;;;;;;;20.48;18.65;;;;;;;;;;5016814;28;20197;-91
2022/02/01 07:17:23;;;;;;;21.10;19.20;;;;;;;;;;5016841;28;20190;-92
2022/02/01 07:19:53;;;;;;;20.15;18.40;;;;;;;;;;5016418;28;20190;-91
2022/02/01 07:22:22;;;;;;;20.80;19.20;;;;;;;;;;5017032;28;20202;-92
2022/02/01 07:24:57;;;;;;;20.92;18.88;;;;;;;;;;5016434;28;20190;-92
2022/02/01 07:27:37;;;;;;;19.38;17.80;;;;;;;;;;5016282;28;20272;-90
2022/02/01 07:30:07;;;;;;;20.33;18.55;;;;;;;;;;5016270;28;20244;-90
2022/02/01 07:32:35;;;;;;;22.88;21.10;;;;;;;;;;5016319;28;20230;-91
2022/02/01 07:35:03;;;;;;;20.35;18.40;;;;;;;;;;5016288;28;20604;-92
2022/02/01 07:37:32;;;;;;;20.58;18.55;;;;;;;;;;5016397;28;20199;-90
2022/02/01 07:40:01;;;;;;;17.88;16.77;;;;;;;;;;5015321;28;20214;-84
2022/02/01 07:42:29;;;;;;;18.10;16.65;;;;;;;;;;4998141;28;20545;-84
2022/02/01 07:44:58;;;;;;;19.42;17.83;;;;;;;;;;5015079;28;20202;-84
2022/02/01 07:47:26;;;;;;;18.05;16.95;;;;;;;;;;5015540;28;20259;-84
2022/02/01 07:49:53;;;;;;;19.05;17.80;;;;;;;;;;5015301;28;20190;-85
2022/02/01 07:52:21;;;;;;;20.58;18.95;;;;;;;;;;5014592;28;20223;-85
2022/02/01 07:54:50;;;;;;;21.73;19.92;;;;;;;;;;5014971;28;20192;-84
2022/02/01 07:57:17;;;;;;;23.23;21.10;;;;;;;;;;5014846;28;20269;-80
2022/02/01 07:59:45;;;;;;;24.23;21.88;;;;;;;;;;5014367;28;20276;-80
2022/02/01 08:02:19;;;;;;;21.42;18.67;;;;;;;;;;5014139;28;20198;-85
2022/02/01 08:04:46;;;;;;;21.33;19.40;;;;;;;;;;5014518;28;20194;-85
2022/02/01 08:07:13;;;;;;;21.88;20.00;;;;;;;;;;5014975;28;20195;-85
2022/02/01 08:09:44;;;;;;;21.05;19.05;;;;;;;;;;5015139;28;20583;-85
2022/02/01 08:12:25;;;;;;;23.10;20.75;;;;;;;;;;5014683;28;20685;-84
2022/02/01 08:17:39;;;;;;;22.95;20.98;;;;;;;;;;5012560;28;20676;-85
2022/02/01 08:20:09;;;;;;;20.42;18.55;;;;;;;;;;4997952;28;20229;-85
2022/02/01 08:22:49;;;;;;;22.02;19.85;;;;;;;;;;5014497;28;20254;-83
2022/02/01 08:25:16;;;;;;;19.92;18.50;;;;;;;;;;5014767;28;20195;-85
2022/02/01 08:27:46;;;;;;;24.23;22.00;;;;;;;;;;4996859;28;20684;-85
2022/02/01 08:30:13;;;;;;;22.75;20.75;;;;;;;;;;5014289;28;20194;-85
2022/02/01 08:32:41;;;;;;;23.67;21.42;;;;;;;;;;5014344;28;20276;-93
2022/02/01 08:35:09;;;;;;;21.88;20.35;;;;;;;;;;4997336;28;20233;-88
2022/02/01 08:37:36;;;;;;;22.60;20.88;;;;;;;;;;5014280;28;20555;-85
2022/02/01 08:40:04;;;;;;;21.98;20.40;;;;;;;;;;5014515;28;20199;-82
2022/02/01 08:42:32;;;;;;;19.83;18.38;;;;;;;;;;5014338;28;20198;-86
2022/02/01 08:45:02;;;;;;;19.48;18.20;;;;;;;;;;5014462;28;20194;-86
2022/02/01 08:47:30;;;;;;;26.23;20.40;;;;;;;;;;5014187;28;20204;-86
2022/02/01 08:49:57;;;;;;;23.55;21.42;;;;;;;;;;5014492;28;20222;-86
2022/02/01 08:52:31;;;;;;;21.05;19.33;;;;;;;;;;5014324;28;20277;-86
2022/02/01 08:55:01;;;;;;;21.75;19.92;;;;;;;;;;5013994;28;20202;-85
2022/02/01 08:57:31;;;;;;;21.90;20.40;;;;;;;;;;4997499;28;20229;-85
2022/02/01 09:00:06;;;;;;;22.02;20.40;;;;;;;;;;5014551;28;20625;-86
2022/02/01 09:02:36;;;;;;;20.88;19.38;;;;;;;;;;5014270;28;20570;-85
2022/02/01 09:05:06;;;;;;;23.25;21.30;;;;;;;;;;5013996;28;20200;-86
2022/02/01 09:07:34;;;;;;;20.58;19.15;;;;;;;;;;5013892;28;20193;-85
2022/02/01 09:10:01;;;;;;;28.67;26.33;;;;;;;;;;5014402;28;20191;-86
2022/02/01 09:12:28;;;;;;;28.00;25.15;;;;;;;;;;5013762;28;20230;-86
2022/02/01 09:14:56;;;;;;;22.02;20.60;;;;;;;;;;5013107;28;20206;-85
2022/02/01 09:17:23;;;;;;;27.70;24.85;;;;;;;;;;5013498;28;20244;-85
2022/02/01 09:19:52;;;;;;;22.27;20.67;;;;;;;;;;5013599;28;20192;-86
2022/02/01 09:22:19;;;;;;;22.77;20.90;;;;;;;;;;5014286;28;20194;-86
2022/02/01 09:24:47;;;;;;;22.05;20.55;;;;;;;;;;5014138;28;20193;-86
2022/02/01 09:27:15;;;;;;;22.60;20.50;;;;;;;;;;5014371;28;20236;-86
2022/02/01 09:29:43;;;;;;;27.83;25.65;;;;;;;;;;5014107;28;20241;-85
2022/02/01 09:32:10;;;;;;;24.75;22.35;;;;;;;;;;5014060;28;20222;-86
2022/02/01 09:34:37;;;;;;;22.25;20.75;;;;;;;;;;5013760;28;20238;-86
2022/02/01 09:37:06;;;;;;;25.55;22.90;;;;;;;;;;5013907;28;20191;-86
2022/02/01 09:39:34;;;;;;;29.05;24.73;;;;;;;;;;5013619;28;20270;-85
2022/02/01 09:42:01;;;;;;;21.92;20.45;;;;;;;;;;5013435;28;20198;-86
2022/02/01 09:44:28;;;;;;;22.08;20.08;;;;;;;;;;5013791;28;20198;-86
2022/02/01 09:46:56;;;;;;;21.20;19.80;;;;;;;;;;5013805;28;20197;-86
2022/02/01 09:49:25;;;;;;;37.20;33.20;;;;;;;;;;5013821;28;20204;-86
2022/02/01 09:51:54;;;;;;;29.13;25.02;;;;;;;;;;5014023;28;20614;-92
2022/02/01 09:54:24;;;;;;;22.73;21.08;;;;;;;;;;4997223;28;20256;-91
2022/02/01 09:56:52;;;;;;;26.45;24.63;;;;;;;;;;5013675;28;20242;-91
2022/02/01 09:59:20;;;;;;;32.63;29.20;;;;;;;;;;5013972;28;20195;-86
2022/02/01 10:01:55;;;;;;;25.75;23.80;;;;;;;;;;5013778;28;20198;-86
2022/02/01 10:04:25;;;;;;;26.48;24.25;;;;;;;;;;4997477;28;20205;-91
2022/02/01 10:06:53;;;;;;;26.70;24.20;;;;;;;;;;5015214;28;20217;-92
2022/02/01 10:09:21;;;;;;;30.10;27.25;;;;;;;;;;5015446;28;20229;-92
2022/02/01 10:11:50;;;;;;;30.02;27.45;;;;;;;;;;5014555;28;20374;-86
2022/02/01 10:14:23;;;;;;;27.60;25.30;;;;;;;;;;5013828;28;20268;-86
2022/02/01 10:16:54;;;;;;;23.60;21.98;;;;;;;;;;5013486;28;20636;-87
2022/02/01 10:19:22;;;;;;;25.00;23.00;;;;;;;;;;5013785;28;20199;-86
2022/02/01 10:21:51;;;;;;;24.58;22.63;;;;;;;;;;5013391;28;20194;-86
2022/02/01 10:24:31;;;;;;;30.45;28.00;;;;;;;;;;5013792;28;20249;-85
2022/02/01 10:27:10;;;;;;;25.52;23.30;;;;;;;;;;5017128;28;20225;-87
2022/02/01 10:29:40;;;;;;;29.58;27.08;;;;;;;;;;5016716;28;20190;-86
2022/02/01 10:32:18;;;;;;;28.08;25.77;;;;;;;;;;5017278;28;20190;-87
2022/02/01 10:34:47;;;;;;;27.15;25.17;;;;;;;;;;5017014;28;20276;-87
2022/02/01 10:37:22;;;;;;;26.92;24.63;;;;;;;;;;5017368;28;20187;-87
2022/02/01 10:39:55;;;;;;;26.02;24.33;;;;;;;;;;5016978;28;20210;-87
2022/02/01 10:42:24;;;;;;;27.73;25.52;;;;;;;;;;5017234;28;20194;-84
2022/02/01 10:44:52;;;;;;;32.92;30.25;;;;;;;;;;5016120;28;20206;-84
2022/02/01 10:47:31;;;;;;;30.48;28.02;;;;;;;;;;5016564;28;20699;-85
2022/02/01 10:50:03;;;;;;;25.02;23.48;;;;;;;;;;5016734;28;20196;-85
2022/02/01 10:52:33;;;;;;;33.13;30.95;;;;;;;;;;5016384;28;20198;-85
2022/02/01 10:55:01;;;;;;;30.30;28.55;;;;;;;;;;5016307;28;20196;-85
2022/02/01 10:57:30;;;;;;;25.75;24.15;;;;;;;;;;5017041;28;20572;-89
2022/02/01 10:59:57;;;;;;;31.15;28.85;;;;;;;;;;5016909;28;20704;-84
2022/02/01 11:02:25;;;;;;;32.53;30.10;;;;;;;;;;5020015;28;20244;-96
2022/02/01 11:04:53;;;;;;;29.33;27.27;;;;;;;;;;5017762;28;20191;-95
2022/02/01 11:07:21;;;;;;;28.73;26.85;;;;;;;;;;5017628;28;20197;-95
2022/02/01 11:09:48;;;;;;;27.83;26.13;;;;;;;;;;5021991;28;20194;-91
2022/02/01 11:12:16;;;;;;;33.17;30.98;;;;;;;;;;5016446;28;20650;-86
2022/02/01 11:14:46;;;;;;;26.55;24.95;;;;;;;;;;5016399;28;20581;-87
2022/02/01 11:17:14;;;;;;;29.48;27.50;;;;;;;;;;5016492;28;20198;-86
2022/02/01 11:19:48;;;;;;;29.05;27.33;;;;;;;;;;5016155;28;20190;-86
2022/02/01 11:22:22;;;;;;;28.98;27.27;;;;;;;;;;5016394;28;20195;-89
2022/02/01 11:24:57;;;;;;;29.63;27.83;;;;;;;;;;5016693;28;20193;-88
2022/02/01 11:27:33;;;;;;;30.95;28.90;;;;;;;;;;5016588;28;20647;-86
2022/02/01 11:30:14;;;;;;;31.42;29.42;;;;;;;;;;5019395;28;20198;-95
2022/02/01 11:32:45;;;;;;;33.85;31.75;;;;;;;;;;5015940;28;20191;-91
2022/02/01 11:35:16;;;;;;;31.83;29.92;;;;;;;;;;5016039;28;20190;-86
2022/02/01 11:37:48;;;;;;;32.60;30.50;;;;;;;;;;4998989;28;20248;-95
2022/02/01 11:40:16;;;;;;;31.67;29.80;;;;;;;;;;5016878;28;20236;-91
2022/02/01 11:42:53;;;;;;;31.00;29.15;;;;;;;;;;4999966;28;20585;-94
2022/02/01 11:45:29;;;;;;;32.53;30.27;;;;;;;;;;5018976;28;20192;-96
2022/02/01 11:47:57;;;;;;;30.75;28.75;;;;;;;;;;5017249;28;20226;-91
2022/02/01 11:50:27;;;;;;;30.73;28.48;;;;;;;;;;5018128;28;20191;-96
2022/02/01 11:52:55;;;;;;;33.40;31.30;;;;;;;;;;5017893;28;20656;-89
2022/02/01 11:55:24;;;;;;;32.53;30.40;;;;;;;;;;5016405;28;20258;-92
2022/02/01 11:57:53;;;;;;;29.65;27.35;;;;;;;;;;5016305;28;20191;-93
2022/02/01 12:00:22;;;;;;;34.85;32.25;;;;;;;;;;5016023;28;20195;-92
2022/02/01 12:02:52;;;;;;;32.42;30.17;;;;;;;;;;5016105;28;20217;-96
2022/02/01 12:05:27;;;;;;;29.90;28.00;;;;;;;;;;5018303;28;20202;-96
2022/02/01 12:08:02;;;;;;;28.85;27.05;;;;;;;;;;5008980;23;20242;-94
2022/02/01 12:10:31;;;;;;;29.30;27.65;;;;;;;;;;4998392;28;20197;-88
2022/02/01 12:12:59;;;;;;;38.85;36.03;;;;;;;;;;5015678;28;20602;-89
2022/02/01 12:15:27;;;;;;;37.50;34.88;;;;;;;;;;5015696;28;20306;-89
2022/02/01 12:17:59;;;;;;;34.90;32.72;;;;;;;;;;5015617;28;20195;-90
2022/02/01 12:20:27;;;;;;;36.95;34.75;;;;;;;;;;5016088;28;20190;-88
2022/02/01 12:23:12;;;;;;;36.70;34.60;;;;;;;;;;5015002;28;20261;-91
2022/02/01 12:25:39;;;;;;;40.40;37.60;;;;;;;;;;5018737;28;20206;-96
2022/02/01 12:28:15;;;;;;;40.47;37.80;;;;;;;;;;5026905;28;20256;-89
2022/02/01 12:30:42;;;;;;;38.95;36.65;;;;;;;;;;4999046;28;20222;-92
2022/02/01 12:33:27;;;;;;;36.95;34.75;;;;;;;;;;5016100;28;20692;-96
2022/02/01 12:35:57;;;;;;;37.08;34.78;;;;;;;;;;4980411;28;20211;-96
2022/02/01 12:38:27;;;;;;;41.58;38.80;;;;;;;;;;4977462;28;20685;-96
2022/02/01 12:40:58;;;;;;;38.38;35.67;;;;;;;;;;4975273;28;20655;-96
2022/02/01 12:43:28;;;;;;;33.33;31.40;;;;;;;;;;4976232;28;20196;-96
2022/02/01 12:46:03;;;;;;;35.45;33.30;;;;;;;;;;4976970;28;20662;-96
2022/02/01 12:48:30;;;;;;;36.28;33.65;;;;;;;;;;4976509;28;20206;-96
2022/02/01 12:51:00;;;;;;;37.80;35.63;;;;;;;;;;4961219;28;20207;-96
2022/02/01 12:53:27;;;;;;;44.30;41.22;;;;;;;;;;4975045;28;20220;-96
2022/02/01 12:55:55;;;;;;;42.22;39.42;;;;;;;;;;4975643;28;20235;-96
2022/02/01 12:58:22;;;;;;;44.47;41.42;;;;;;;;;;4974669;28;20198;-95
2022/02/01 13:00:51;;;;;;;39.75;37.50;;;;;;;;;;4975012;28;20212;-96
2022/02/01 13:03:19;;;;;;;38.78;36.42;;;;;;;;;;4974781;28;20207;-87
2022/02/01 13:05:46;;;;;;;39.70;37.33;;;;;;;;;;4975123;28;20255;-89
2022/02/01 13:16:43;;;;;;;41.83;39.22;;;;;;;;;;5014609;28;20249;-91
2022/02/01 13:21:55;;;;;;;39.40;37.20;;;;;;;;;;5013908;28;20258;-90
2022/02/01 13:24:32;;;;;;;38.60;36.35;;;;;;;;;;5014632;28;20285;-90
2022/02/01 13:26:59;;;;;;;39.65;37.50;;;;;;;;;;5014730;28;20222;-91
2022/02/01 13:29:27;;;;;;;38.55;36.50;;;;;;;;;;5014599;28;20249;-91
2022/02/01 13:31:54;;;;;;;39.65;37.42;;;;;;;;;;5014286;28;20190;-91
2022/02/01 13:34:26;;;;;;;44.72;41.92;;;;;;;;;;5014235;28;20222;-92
2022/02/01 13:36:56;;;;;;;40.28;38.05;;;;;;;;;;5014470;28;20747;-91
2022/02/01 13:39:24;;;;;;;40.40;38.15;;;;;;;;;;5014576;28;20262;-91
2022/02/01 13:41:58;;;;;;;44.55;41.85;;;;;;;;;;5014180;28;20196;-91
2022/02/01 13:44:25;;;;;;;44.15;41.53;;;;;;;;;;5014444;28;20252;-90
2022/02/01 13:47:00;;;;;;;44.63;42.15;;;;;;;;;;5013966;28;20190;-91
2022/02/01 13:49:27;;;;;;;42.95;40.85;;;;;;;;;;5014586;28;20195;-91
2022/02/01 13:51:55;;;;;;;43.72;41.22;;;;;;;;;;5014489;28;20194;-91
2022/02/01 13:54:22;;;;;;;45.58;43.08;;;;;;;;;;4997154;28;20226;-91
2022/02/01 13:56:52;;;;;;;45.47;42.60;;;;;;;;;;5014217;28;20231;-92
2022/02/01 13:59:25;;;;;;;42.83;40.45;;;;;;;;;;5014829;28;20194;-91
2022/02/01 14:02:01;;;;;;;43.85;41.45;;;;;;;;;;5000614;28;20237;-91
2022/02/01 14:04:35;;;;;;;47.45;44.17;;;;;;;;;;5018031;28;20190;-90
2022/02/01 14:07:09;;;;;;;41.70;39.60;;;;;;;;;;5016788;28;20231;-89
2022/02/01 14:09:57;;;;;;;42.25;40.05;;;;;;;;;;5018030;28;20202;-91
2022/02/01 14:13:01;;;;;;;44.88;42.58;;;;;;;;;;5017786;28;20225;-89
2022/02/01 14:26:44;;;;;;;45.83;43.30;;;;;;;;;;5008491;28;20269;-92
2022/02/01 14:32:13;;;;;;;49.10;46.20;;;;;;;;;;5020389;28;20278;-92
2022/02/01 14:34:42;;;;;;;48.40;45.60;;;;;;;;;;5018297;28;20230;-92
2022/02/01 14:37:14;;;;;;;50.90;47.78;;;;;;;;;;5017706;28;20686;-91
2022/02/01 14:45:12;;;;;;;46.45;43.85;;;;;;;;;;5018448;28;20197;-92
2022/02/01 14:47:41;;;;;;;47.70;45.25;;;;;;;;;;5022066;28;20228;-93
2022/02/01 14:50:09;;;;;;;47.58;44.88;;;;;;;;;;5001990;28;20201;-90
2022/02/01 14:52:36;;;;;;;49.10;46.50;;;;;;;;;;5017518;28;20191;-94
2022/02/01 14:55:09;;;;;;;47.38;44.97;;;;;;;;;;5017969;28;20223;-95
2022/02/01 15:11:53;;;;;;;60.97;57.08;;;;;;;;;;4957829;28;20578;-95
2022/02/01 15:14:21;;;;;;;61.13;57.25;;;;;;;;;;4957736;29;20769;-94
2022/02/01 15:16:48;;;;;;;66.05;61.95;;;;;;;;;;4957807;29;20228;-94
2022/02/01 15:19:17;;;;;;;62.10;58.40;;;;;;;;;;4959165;29;20194;-95
2022/02/01 15:21:46;;;;;;;61.13;57.85;;;;;;;;;;4944343;29;20206;-91
2022/02/01 15:24:14;;;;;;;61.25;57.85;;;;;;;;;;4962737;29;20198;-96
2022/02/01 15:26:41;;;;;;;59.10;55.70;;;;;;;;;;4966525;29;20198;-96
2022/02/01 15:29:08;;;;;;;60.83;57.40;;;;;;;;;;4958024;28;20358;-96
2022/02/01 15:31:36;;;;;;;62.83;58.88;;;;;;;;;;4962063;29;20204;-96
2022/02/01 15:34:03;;;;;;;62.00;58.40;;;;;;;;;;4956351;29;20224;-96
2022/02/01 15:36:35;;;;;;;62.45;58.90;;;;;;;;;;4956406;29;20205;-96
2022/02/01 15:58:34;;;;;;;65.88;62.28;;;;;;;;;;4955774;29;20202;-95
2022/02/01 16:01:02;;;;;;;66.10;62.50;;;;;;;;;;4956089;29;20611;-94
2022/02/01 16:03:31;;;;;;;64.28;60.65;;;;;;;;;;4955713;29;20680;-95
2022/02/01 16:05:58;;;;;;;62.63;59.22;;;;;;;;;;4956229;29;20198;-96
2022/02/01 16:08:32;;;;;;;65.18;61.45;;;;;;;;;;4955779;28;20763;-91
2022/02/01 16:11:05;;;;;;;63.03;59.50;;;;;;;;;;4955883;29;20643;-92
2022/02/01 16:13:37;;;;;;;61.25;57.60;;;;;;;;;;4955222;29;20198;-90
2022/02/01 16:16:07;;;;;;;60.17;56.47;;;;;;;;;;4981708;28;20232;-91
2022/02/01 16:18:35;;;;;;;60.47;56.72;;;;;;;;;;4995803;28;20193;-91
2022/02/01 16:21:02;;;;;;;64.32;60.63;;;;;;;;;;4999396;28;20216;-89
2022/02/01 16:23:31;;;;;;;63.83;60.20;;;;;;;;;;4995478;28;20203;-89
2022/02/01 16:25:59;;;;;;;64.43;60.85;;;;;;;;;;4996299;28;20208;-89
2022/02/01 16:28:26;;;;;;;65.75;61.75;;;;;;;;;;4995800;28;20265;-87
2022/02/01 16:30:54;;;;;;;68.15;63.95;;;;;;;;;;4995252;28;20290;-88
2022/02/01 16:33:21;;;;;;;61.25;57.95;;;;;;;;;;4996061;28;20204;-89
2022/02/01 16:35:48;;;;;;;62.70;58.35;;;;;;;;;;4995713;28;20254;-89
2022/02/01 16:38:16;;;;;;;56.10;52.60;;;;;;;;;;4995965;28;20204;-90
2022/02/01 16:40:45;;;;;;;60.85;57.00;;;;;;;;;;4994283;28;20227;-89